createdAt,value
2022-09-02T00:00:09.190Z,13.80
2022-09-02T00:05:10.782Z,13.76
2022-09-02T00:10:12.602Z,13.74
2022-09-02T00:15:15.308Z,13.74
2022-09-02T00:20:18.583Z,13.79
2022-09-02T00:25:20.402Z,13.82
2022-09-02T00:30:22.033Z,13.77
2022-09-02T00:35:23.715Z,13.78
2022-09-02T00:40:26.256Z,13.73
2022-09-02T00:45:28.182Z,13.75
2022-09-02T00:50:32.511Z,13.79
2022-09-02T00:55:40.527Z,13.81
2022-09-02T01:00:44.962Z,13.75
2022-09-02T01:05:49.072Z,13.72
2022-09-02T01:10:54.870Z,13.71
2022-09-02T01:16:10.664Z,13.64
2022-09-02T01:21:12.324Z,13.51
2022-09-02T01:26:14.302Z,13.34
2022-09-02T01:31:15.919Z,13.26
2022-09-02T01:36:17.631Z,13.28
2022-09-02T01:41:19.586Z,13.25
2022-09-02T01:46:21.411Z,13.22
2022-09-02T01:51:24.196Z,13.19
2022-09-02T01:56:26.795Z,13.19
2022-09-02T02:01:28.503Z,13.17
2022-09-02T02:13:29.363Z,13.01
2022-09-02T02:18:31.134Z,12.97
2022-09-02T02:23:34.228Z,12.98
2022-09-02T02:28:36.534Z,13.05
2022-09-02T02:33:39.633Z,13.07
2022-09-02T02:38:41.945Z,13.01
2022-09-02T02:43:43.718Z,12.86
2022-09-02T02:48:46.484Z,12.77
2022-09-02T02:53:48.142Z,12.66
2022-09-02T02:58:49.870Z,12.63
2022-09-02T03:03:53.103Z,12.53
2022-09-02T03:08:57.641Z,12.47
2022-09-02T03:13:59.742Z,12.42
2022-09-02T03:19:01.855Z,12.40
2022-09-02T03:24:06.521Z,12.41
2022-09-02T03:29:08.374Z,12.38
2022-09-02T03:34:10.548Z,12.33
2022-09-02T03:39:12.563Z,12.31
2022-09-02T03:44:17.057Z,12.29
2022-09-02T03:49:19.772Z,12.24
2022-09-02T03:54:21.514Z,12.21
2022-09-02T03:59:23.355Z,12.21
2022-09-02T04:04:26.020Z,12.25
2022-09-02T04:09:28.119Z,12.28
2022-09-02T04:14:29.986Z,12.32
2022-09-02T04:19:31.654Z,12.30
2022-09-02T04:24:34.783Z,12.26
2022-09-02T04:29:36.885Z,12.25
2022-09-02T04:34:38.771Z,12.26
2022-09-02T04:39:40.512Z,12.24
2022-09-02T04:44:42.331Z,12.19
2022-09-02T04:49:44.580Z,12.14
2022-09-02T04:54:47.411Z,12.14
2022-09-02T04:59:50.110Z,12.08
2022-09-02T05:04:52.496Z,11.98
2022-09-02T05:10:03.276Z,12.00
2022-09-02T05:15:10.584Z,12.03
2022-09-02T05:20:14.416Z,12.08
2022-09-02T05:25:17.279Z,12.18
2022-09-02T05:30:40.315Z,12.30
2022-09-02T05:35:45.560Z,12.54
2022-09-02T05:40:56.248Z,12.79
2022-09-02T05:46:00.305Z,13.15
2022-09-02T05:51:06.437Z,13.55
2022-09-02T05:56:09.605Z,13.87
2022-09-02T06:01:13.347Z,14.21
2022-09-02T06:06:15.012Z,14.54
2022-09-02T06:11:18.009Z,14.85
2022-09-02T06:16:22.093Z,15.24
2022-09-02T06:21:24.075Z,15.55
2022-09-02T06:26:27.477Z,15.86
2022-09-02T06:31:34.607Z,16.28
2022-09-02T06:36:38.284Z,16.66
2022-09-02T06:41:43.058Z,17.07
2022-09-02T06:46:54.343Z,17.35
2022-09-02T06:52:02.275Z,17.61
2022-09-02T06:57:08.372Z,17.84
2022-09-02T07:02:11.912Z,18.00
2022-09-02T07:07:14.945Z,18.12
2022-09-02T07:12:40.693Z,18.21
2022-09-02T07:17:49.674Z,18.31
2022-09-02T07:23:04.766Z,18.39
2022-09-02T07:28:10.512Z,18.41
2022-09-02T07:33:14.005Z,18.47
2022-09-02T07:38:17.449Z,18.60
2022-09-02T07:43:19.138Z,18.72
2022-09-02T07:48:21.126Z,18.90
2022-09-02T07:53:23.599Z,19.08
2022-09-02T07:58:26.326Z,19.08
2022-09-02T08:03:28.737Z,19.20
2022-09-02T08:08:32.336Z,19.38
2022-09-02T08:13:35.441Z,19.42
2022-09-02T08:18:37.147Z,19.57
2022-09-02T08:23:39.587Z,19.74
2022-09-02T08:28:41.259Z,19.84
2022-09-02T08:33:42.887Z,19.98
2022-09-02T08:38:44.986Z,19.97
2022-09-02T08:43:53.069Z,20.04
2022-09-02T08:48:57.684Z,20.15
2022-09-02T08:54:12.914Z,20.19
2022-09-02T08:59:15.822Z,20.36
2022-09-02T09:04:20.108Z,20.39
2022-09-02T09:09:28.732Z,20.49
2022-09-02T09:14:41.844Z,20.53
2022-09-02T09:19:55.441Z,20.67
2022-09-02T09:24:57.988Z,20.83
2022-09-02T09:29:59.534Z,21.03
2022-09-02T09:35:19.599Z,21.15
2022-09-02T09:40:30.834Z,21.30
2022-09-02T09:45:41.694Z,21.37
2022-09-02T09:50:45.261Z,21.50
2022-09-02T09:55:53.075Z,21.71
2022-09-02T10:01:00.620Z,21.78
2022-09-02T10:06:20.773Z,21.77
2022-09-02T10:11:26.266Z,21.75
2022-09-02T10:17:10.972Z,21.87
2022-09-02T10:22:48.534Z,21.92
2022-09-02T10:28:51.830Z,22.05
2022-09-02T10:34:03.545Z,22.23
2022-09-02T10:39:45.151Z,22.32
2022-09-02T10:45:00.858Z,22.39
2022-09-02T10:50:22.947Z,22.45
2022-09-02T10:55:52.378Z,22.43
2022-09-02T11:00:56.802Z,22.46
2022-09-02T11:06:51.752Z,22.52
2022-09-02T11:12:08.593Z,22.54
2022-09-02T11:17:28.216Z,22.50
2022-09-02T11:22:57.326Z,22.54
2022-09-02T11:28:11.300Z,22.61
2022-09-02T11:33:21.482Z,22.67
2022-09-02T11:38:41.174Z,22.69
2022-09-02T11:44:14.729Z,22.78
2022-09-02T11:49:37.495Z,22.78
2022-09-02T11:54:46.468Z,23.14
2022-09-02T11:59:54.906Z,23.25
2022-09-02T12:05:31.913Z,23.33
2022-09-02T12:10:46.919Z,23.25
2022-09-02T12:16:19.302Z,23.26
2022-09-02T12:21:26.131Z,23.35
2022-09-02T12:26:50.844Z,23.40
2022-09-02T12:31:53.983Z,23.44
2022-09-02T12:37:00.848Z,23.47
2022-09-02T12:42:11.833Z,23.58
2022-09-02T12:47:25.687Z,23.70
2022-09-02T12:52:42.370Z,23.72
2022-09-02T12:57:47.280Z,23.72
2022-09-02T13:03:13.915Z,23.83
2022-09-02T13:08:34.546Z,23.76
2022-09-02T13:14:13.869Z,23.77
2022-09-02T13:19:41.214Z,23.82
2022-09-02T13:25:04.219Z,23.80
2022-09-02T13:30:38.164Z,23.85
2022-09-02T13:35:41.644Z,23.82
2022-09-02T13:40:46.134Z,23.83
2022-09-02T13:45:49.690Z,23.81
2022-09-02T13:50:54.516Z,23.81
2022-09-02T13:55:58.028Z,23.95
2022-09-02T14:01:25.312Z,23.86
2022-09-02T14:06:31.170Z,23.86
2022-09-02T14:11:45.702Z,24.05
2022-09-02T14:16:47.348Z,24.20
2022-09-02T14:21:56.580Z,24.08
2022-09-02T14:26:59.962Z,24.15
2022-09-02T14:32:13.623Z,24.20
2022-09-02T14:37:20.916Z,24.17
2022-09-02T14:42:22.582Z,24.23
2022-09-02T14:47:24.324Z,24.21
2022-09-02T14:52:30.106Z,24.24
2022-09-02T14:57:35.350Z,24.23
2022-09-02T15:02:40.602Z,24.16
2022-09-02T15:07:42.413Z,24.06
2022-09-02T15:12:50.348Z,24.03
2022-09-02T15:17:51.907Z,24.03
2022-09-02T15:22:53.827Z,23.97
2022-09-02T15:27:55.418Z,23.84
2022-09-02T15:32:57.052Z,23.82
2022-09-02T15:37:58.608Z,23.80
2022-09-02T15:43:00.308Z,23.78
2022-09-02T15:48:02.031Z,23.84
2022-09-02T15:53:03.588Z,23.79
2022-09-02T15:58:05.206Z,23.69
2022-09-02T16:03:06.834Z,23.62
2022-09-02T16:08:08.657Z,23.55
2022-09-02T16:13:10.232Z,23.50
2022-09-02T16:18:14.433Z,23.47
2022-09-02T16:23:16.035Z,23.47
2022-09-02T16:28:17.640Z,23.51
2022-09-02T16:33:19.195Z,23.53
2022-09-02T16:38:20.879Z,23.55
2022-09-02T16:43:33.276Z,23.61
2022-09-02T16:48:39.420Z,23.66
2022-09-02T16:53:41.107Z,23.67
2022-09-02T16:58:43.153Z,23.62
2022-09-02T17:03:46.139Z,23.55
2022-09-02T17:08:48.880Z,23.39
2022-09-02T17:13:59.434Z,23.19
2022-09-02T17:19:02.423Z,22.97
2022-09-02T17:24:06.636Z,22.75
2022-09-02T17:29:31.622Z,22.55
2022-09-02T17:34:38.695Z,22.33
2022-09-02T17:39:40.339Z,22.14
2022-09-02T17:44:42.943Z,22.01
2022-09-02T17:49:44.940Z,21.90
2022-09-02T17:54:49.861Z,21.80
2022-09-02T18:00:12.314Z,21.70
2022-09-02T18:05:45.525Z,21.58
2022-09-02T18:10:57.544Z,21.43
2022-09-02T18:16:23.345Z,21.30
2022-09-02T18:21:57.850Z,21.15
2022-09-02T18:27:09.583Z,20.95
2022-09-02T18:32:32.061Z,20.86
2022-09-02T18:38:00.020Z,20.77
2022-09-02T18:43:22.177Z,20.70
2022-09-02T18:48:31.310Z,20.67
2022-09-02T18:53:47.329Z,20.66
2022-09-02T18:58:56.388Z,20.63
2022-09-02T19:03:59.437Z,20.65
2022-09-02T19:09:06.686Z,20.64
2022-09-02T19:14:08.182Z,20.64
2022-09-02T19:19:10.460Z,20.55
2022-09-02T19:24:15.632Z,20.45
2022-09-02T19:29:18.026Z,20.37
2022-09-02T19:34:22.526Z,20.33
2022-09-02T19:39:26.780Z,20.23
2022-09-02T19:44:28.634Z,20.10
2022-09-02T19:49:34.524Z,20.01
2022-09-02T19:54:36.201Z,19.97
2022-09-02T19:59:37.767Z,19.83
2022-09-02T20:04:39.422Z,19.64
2022-09-02T20:09:44.624Z,19.52
2022-09-02T20:14:50.719Z,19.37
2022-09-02T20:19:55.590Z,19.20
2022-09-02T20:25:02.716Z,18.99
2022-09-02T20:30:14.386Z,18.86
2022-09-02T20:35:22.181Z,18.73
2022-09-02T20:40:35.459Z,18.60
2022-09-02T20:45:40.421Z,18.54
2022-09-02T20:50:57.807Z,18.46
2022-09-02T20:56:10.529Z,18.34
2022-09-02T21:01:22.397Z,18.29
2022-09-02T21:06:28.403Z,18.28
2022-09-02T21:11:37.038Z,18.29
2022-09-02T21:16:44.275Z,18.31
2022-09-02T21:22:01.937Z,18.30
2022-09-02T21:27:12.089Z,18.32
2022-09-02T21:32:40.247Z,18.37
2022-09-02T21:37:44.509Z,18.42
2022-09-02T21:43:07.851Z,18.41
2022-09-02T21:48:47.380Z,18.45
2022-09-02T21:54:21.208Z,18.46
2022-09-02T21:59:33.161Z,18.51
2022-09-02T22:04:59.315Z,18.59
2022-09-02T22:10:04.754Z,18.64
2022-09-02T22:15:18.235Z,18.73
2022-09-02T22:20:28.894Z,18.68
2022-09-02T22:25:34.502Z,18.61
2022-09-02T22:30:41.565Z,18.56
2022-09-02T22:36:07.310Z,18.52
2022-09-02T22:41:50.874Z,18.46
2022-09-02T22:47:22.739Z,18.39
2022-09-02T22:52:46.159Z,18.32
2022-09-02T22:58:04.308Z,18.27
2022-09-02T23:03:14.085Z,18.21
2022-09-02T23:08:21.737Z,18.16
2022-09-02T23:13:36.553Z,18.12
2022-09-02T23:18:53.381Z,18.04
2022-09-02T23:24:27.721Z,17.98
2022-09-02T23:29:29.578Z,17.95
2022-09-02T23:34:35.307Z,17.94
2022-09-02T23:40:17.936Z,17.92
2022-09-02T23:45:26.893Z,17.86
2022-09-02T23:50:57.753Z,17.80
2022-09-02T23:56:08.425Z,17.77
